CMB805 Details

Departure: Norfolk Naval Station (Chambers Field) (KNGU)
Arrival: Joint Base McGuire Dix Lakehurst (KWRI) at N/A
Notes: USTRANSCOM CONTRACT FLIGHT


Current Weather Information
KNGU 230759Z 30007KT 10SM SCT140 16/14 A2991 RMK AO2 SLP128 T01610144
KWRI 230756Z AUTO 28005KT 10SM CLR 14/14 A2980 RMK AO2 SLP091 T01430138